createdAt,value
2024-01-29T00:00:27.672Z,21.75
2024-01-29T00:01:27.788Z,21.72
2024-01-29T00:02:27.642Z,21.78
2024-01-29T00:03:27.704Z,21.73
2024-01-29T00:04:27.757Z,21.78
2024-01-29T00:05:27.620Z,21.75
2024-01-29T00:06:27.772Z,21.75
2024-01-29T00:07:27.703Z,21.75
2024-01-29T00:08:27.614Z,21.73
2024-01-29T00:09:27.691Z,21.76
2024-01-29T00:10:27.780Z,21.76
2024-01-29T00:11:27.812Z,21.73
2024-01-29T00:12:27.775Z,21.72
2024-01-29T00:13:27.716Z,21.76
2024-01-29T00:14:27.733Z,21.75
2024-01-29T00:15:27.777Z,21.75
2024-01-29T00:16:27.806Z,21.72
2024-01-29T00:17:27.848Z,21.71
2024-01-29T00:18:27.896Z,21.68
2024-01-29T00:19:27.945Z,21.73
2024-01-29T00:20:27.876Z,21.75
2024-01-29T00:21:27.897Z,21.68
2024-01-29T00:22:27.938Z,21.71
2024-01-29T00:23:27.957Z,21.72
2024-01-29T00:24:27.972Z,21.69
2024-01-29T00:25:28.004Z,21.68
2024-01-29T00:26:28.023Z,21.72
2024-01-29T00:27:28.044Z,21.73
2024-01-29T00:28:28.030Z,21.66
2024-01-29T00:29:28.124Z,21.69
2024-01-29T00:30:28.067Z,21.71
2024-01-29T00:31:28.045Z,21.69
2024-01-29T00:32:28.201Z,21.71
2024-01-29T00:33:28.279Z,21.72
2024-01-29T00:34:28.218Z,21.65
2024-01-29T00:35:28.185Z,21.72
2024-01-29T00:36:28.195Z,21.66
2024-01-29T00:37:28.192Z,21.71
2024-01-29T00:38:28.184Z,21.75
2024-01-29T00:39:28.271Z,21.72
2024-01-29T00:40:28.256Z,21.71
2024-01-29T00:41:29.161Z,21.69
2024-01-29T00:42:28.335Z,21.68
2024-01-29T00:43:28.324Z,21.66
2024-01-29T00:44:28.664Z,21.68
2024-01-29T00:45:28.429Z,21.68
2024-01-29T00:46:28.430Z,21.69
2024-01-29T00:47:28.434Z,21.66
2024-01-29T00:48:28.488Z,21.68
2024-01-29T00:49:28.557Z,21.69
2024-01-29T00:50:28.477Z,21.72
2024-01-29T00:51:28.510Z,21.62
2024-01-29T00:52:28.508Z,21.66
2024-01-29T00:53:28.510Z,21.63
2024-01-29T00:54:28.708Z,21.65
2024-01-29T00:55:28.595Z,21.66
2024-01-29T00:56:28.614Z,21.65
2024-01-29T00:57:28.645Z,21.66
2024-01-29T00:58:28.634Z,21.66
2024-01-29T00:59:28.672Z,21.65
2024-01-29T01:00:28.872Z,21.66
2024-01-29T01:01:28.780Z,21.68
2024-01-29T01:02:28.787Z,21.63
2024-01-29T01:03:28.842Z,21.66
2024-01-29T01:04:28.888Z,21.66
2024-01-29T01:05:28.854Z,21.60
2024-01-29T01:06:28.960Z,21.63
2024-01-29T01:07:28.881Z,21.65
2024-01-29T01:08:28.916Z,21.63
2024-01-29T01:09:28.960Z,21.60
2024-01-29T01:10:28.918Z,21.60
2024-01-29T01:11:28.936Z,21.63
2024-01-29T01:12:28.979Z,21.62
2024-01-29T01:13:28.961Z,21.63
2024-01-29T01:14:29.199Z,21.57
2024-01-29T01:15:29.041Z,21.59
2024-01-29T01:16:29.034Z,21.62
2024-01-29T01:17:29.130Z,21.60
2024-01-29T01:18:29.193Z,21.57
2024-01-29T01:19:29.205Z,21.59
2024-01-29T01:20:29.194Z,21.60
2024-01-29T01:21:29.194Z,21.60
2024-01-29T01:22:29.229Z,21.57
2024-01-29T01:23:29.250Z,21.59
2024-01-29T01:24:29.756Z,21.65
2024-01-29T01:25:29.312Z,21.64
2024-01-29T01:26:29.318Z,21.57
2024-01-29T01:27:29.383Z,21.56
2024-01-29T01:28:29.346Z,21.59
2024-01-29T01:29:29.379Z,21.59
2024-01-29T01:30:29.460Z,21.54
2024-01-29T01:31:29.425Z,21.56
2024-01-29T01:32:29.449Z,21.57
2024-01-29T01:33:29.525Z,21.50
2024-01-29T01:34:29.610Z,21.60
2024-01-29T01:35:29.520Z,21.57
2024-01-29T01:36:29.598Z,21.54
2024-01-29T01:37:29.609Z,21.59
2024-01-29T01:38:29.598Z,21.56
2024-01-29T01:39:29.726Z,21.59
2024-01-29T01:40:29.652Z,21.59
2024-01-29T01:41:29.647Z,21.62
2024-01-29T01:42:29.707Z,21.56
2024-01-29T01:43:29.738Z,21.56
2024-01-29T01:44:30.205Z,21.56
2024-01-29T01:45:29.879Z,21.54
2024-01-29T01:46:29.967Z,21.53
2024-01-29T01:47:29.838Z,21.51
2024-01-29T01:48:29.994Z,21.61
2024-01-29T01:49:29.968Z,21.56
2024-01-29T01:50:29.894Z,21.51
2024-01-29T01:51:29.954Z,21.56
2024-01-29T01:52:29.900Z,21.56
2024-01-29T01:53:29.923Z,21.54
2024-01-29T01:54:30.002Z,21.56
2024-01-29T01:55:29.982Z,21.53
2024-01-29T01:56:29.984Z,21.53
2024-01-29T01:57:30.046Z,21.53
2024-01-29T01:58:30.049Z,21.59
2024-01-29T01:59:30.100Z,21.56
2024-01-29T02:00:30.104Z,21.56
2024-01-29T02:01:30.240Z,21.62
2024-01-29T02:02:30.132Z,21.56
2024-01-29T02:03:30.192Z,21.50
2024-01-29T02:04:30.271Z,21.54
2024-01-29T02:05:30.224Z,21.48
2024-01-29T02:06:30.305Z,21.51
2024-01-29T02:07:30.412Z,21.53
2024-01-29T02:08:30.292Z,21.51
2024-01-29T02:09:30.360Z,21.48
2024-01-29T02:10:30.726Z,21.46
2024-01-29T02:11:30.307Z,21.56
2024-01-29T02:12:30.375Z,21.54
2024-01-29T02:13:30.421Z,21.51
2024-01-29T02:14:30.426Z,21.48
2024-01-29T02:15:30.488Z,21.50
2024-01-29T02:16:30.449Z,21.46
2024-01-29T02:17:30.534Z,21.51
2024-01-29T02:18:30.545Z,21.48
2024-01-29T02:19:30.605Z,21.53
2024-01-29T02:20:30.565Z,21.50
2024-01-29T02:21:30.583Z,21.53
2024-01-29T02:22:30.624Z,21.57
2024-01-29T02:23:30.657Z,21.50
2024-01-29T02:24:30.676Z,21.50
2024-01-29T02:25:30.667Z,21.51
2024-01-29T02:26:30.711Z,21.50
2024-01-29T02:27:30.757Z,21.47
2024-01-29T02:28:30.737Z,21.44
2024-01-29T02:29:30.750Z,21.47
2024-01-29T02:30:31.203Z,21.46
2024-01-29T02:31:30.847Z,21.47
2024-01-29T02:32:30.842Z,21.46
2024-01-29T02:33:30.955Z,21.43
2024-01-29T02:34:30.962Z,21.46
2024-01-29T02:35:30.894Z,21.48
2024-01-29T02:36:30.943Z,21.43
2024-01-29T02:37:30.970Z,21.46
2024-01-29T02:38:30.985Z,21.44
2024-01-29T02:39:31.116Z,21.43
2024-01-29T02:40:31.029Z,21.43
2024-01-29T02:41:33.210Z,21.40
2024-01-29T02:42:31.039Z,21.43
2024-01-29T02:43:31.015Z,21.43
2024-01-29T02:44:31.014Z,21.48
2024-01-29T02:45:31.051Z,21.43
2024-01-29T02:46:31.065Z,21.38
2024-01-29T02:47:31.108Z,21.37
2024-01-29T02:48:31.103Z,21.41
2024-01-29T02:49:31.091Z,21.48
2024-01-29T02:50:31.129Z,21.40
2024-01-29T02:51:31.087Z,21.41
2024-01-29T02:52:31.087Z,21.32
2024-01-29T02:53:31.090Z,21.37
2024-01-29T02:54:31.083Z,21.38
2024-01-29T02:55:31.078Z,21.41
2024-01-29T02:56:31.079Z,21.47
2024-01-29T02:57:31.136Z,21.37
2024-01-29T02:58:31.055Z,21.38
2024-01-29T02:59:31.067Z,21.37
2024-01-29T03:00:31.384Z,21.41
2024-01-29T03:01:31.143Z,21.40
2024-01-29T03:02:31.044Z,21.40
2024-01-29T03:03:31.126Z,21.41
2024-01-29T03:04:31.130Z,21.37
2024-01-29T03:05:31.270Z,21.38
2024-01-29T03:06:31.217Z,21.32
2024-01-29T03:07:31.095Z,21.41
2024-01-29T03:08:31.097Z,21.36
2024-01-29T03:09:31.101Z,21.35
2024-01-29T03:10:31.249Z,21.38
2024-01-29T03:11:31.072Z,21.38
2024-01-29T03:12:31.101Z,21.34
2024-01-29T03:13:31.085Z,21.38
2024-01-29T03:14:31.098Z,21.44
2024-01-29T03:15:31.162Z,21.37
2024-01-29T03:16:31.107Z,21.41
2024-01-29T03:17:31.219Z,21.35
2024-01-29T03:18:31.212Z,21.35
2024-01-29T03:19:31.163Z,21.38
2024-01-29T03:20:31.245Z,21.32
2024-01-29T03:21:31.124Z,21.30
2024-01-29T03:22:31.091Z,21.34
2024-01-29T03:23:31.136Z,21.37
2024-01-29T03:24:31.141Z,21.37
2024-01-29T03:25:31.269Z,21.32
2024-01-29T03:26:31.122Z,21.37
2024-01-29T03:27:31.120Z,21.32
2024-01-29T03:28:31.142Z,21.40
2024-01-29T03:29:31.108Z,21.36
2024-01-29T03:30:31.278Z,21.32
2024-01-29T03:31:31.110Z,21.30
2024-01-29T03:32:31.133Z,21.35
2024-01-29T03:33:31.173Z,21.35
2024-01-29T03:34:31.196Z,21.31
2024-01-29T03:35:31.122Z,21.35
2024-01-29T03:36:31.100Z,21.34
2024-01-29T03:37:31.099Z,21.35
2024-01-29T03:38:31.165Z,21.35
2024-01-29T03:39:31.123Z,21.38
2024-01-29T03:40:31.121Z,21.31
2024-01-29T03:41:33.231Z,21.31
2024-01-29T03:42:31.182Z,21.31
2024-01-29T03:43:31.118Z,21.28
2024-01-29T03:44:31.133Z,21.24
2024-01-29T03:45:31.265Z,21.30
2024-01-29T03:46:31.108Z,21.28
2024-01-29T03:47:31.173Z,21.30
2024-01-29T03:48:31.268Z,21.30
2024-01-29T03:49:31.181Z,21.38
2024-01-29T03:50:31.298Z,21.34
2024-01-29T03:51:31.219Z,21.30
2024-01-29T03:52:31.272Z,21.32
2024-01-29T03:53:31.211Z,21.28
2024-01-29T03:54:31.257Z,21.24
2024-01-29T03:55:31.843Z,21.34
2024-01-29T03:56:31.263Z,21.28
2024-01-29T03:57:31.303Z,21.32
2024-01-29T03:58:31.299Z,21.28
2024-01-29T03:59:31.314Z,21.26
2024-01-29T04:00:31.804Z,21.28
2024-01-29T04:01:31.475Z,21.28
2024-01-29T04:02:31.402Z,21.22
2024-01-29T04:03:31.443Z,21.26
2024-01-29T04:04:31.583Z,21.28
2024-01-29T04:05:31.529Z,21.25
2024-01-29T04:06:31.493Z,21.27
2024-01-29T04:07:31.534Z,21.22
2024-01-29T04:08:31.525Z,21.25
2024-01-29T04:09:31.550Z,21.16
2024-01-29T04:10:31.733Z,21.24
2024-01-29T04:11:31.589Z,21.24
2024-01-29T04:12:31.609Z,21.26
2024-01-29T04:13:31.636Z,21.26
2024-01-29T04:14:31.637Z,21.25
2024-01-29T04:15:31.734Z,21.24
2024-01-29T04:16:31.768Z,21.24
2024-01-29T04:17:31.762Z,21.21
2024-01-29T04:18:31.804Z,21.25
2024-01-29T04:19:31.901Z,21.21
2024-01-29T04:20:31.798Z,21.24
2024-01-29T04:21:31.838Z,21.15
2024-01-29T04:22:31.820Z,21.19
2024-01-29T04:23:31.854Z,21.21
2024-01-29T04:24:31.923Z,21.18
2024-01-29T04:25:31.902Z,21.25
2024-01-29T04:26:31.903Z,21.19
2024-01-29T04:27:31.918Z,21.21
2024-01-29T04:28:31.947Z,21.18
2024-01-29T04:29:31.970Z,21.30
2024-01-29T04:30:32.016Z,21.19
2024-01-29T04:31:32.033Z,21.22
2024-01-29T04:32:32.041Z,21.15
2024-01-29T04:33:39.565Z,21.26
2024-01-29T04:34:39.494Z,21.26
2024-01-29T04:35:39.472Z,21.30
2024-01-29T04:36:39.513Z,21.20
2024-01-29T04:37:39.494Z,21.22
2024-01-29T04:38:39.503Z,21.18
2024-01-29T04:39:39.475Z,21.19
2024-01-29T04:40:39.470Z,21.16
2024-01-29T04:41:39.480Z,21.21
2024-01-29T04:42:39.504Z,21.19
2024-01-29T04:43:39.482Z,21.19
2024-01-29T04:44:39.493Z,21.13
2024-01-29T04:45:39.522Z,21.12
2024-01-29T04:46:39.504Z,21.21
2024-01-29T04:47:39.504Z,21.18
2024-01-29T04:48:39.500Z,21.18
2024-01-29T04:49:39.954Z,21.16
2024-01-29T04:50:39.498Z,21.13
2024-01-29T04:51:39.525Z,21.12
2024-01-29T04:52:39.514Z,21.15
2024-01-29T04:53:39.510Z,21.16
2024-01-29T04:54:39.526Z,21.15
2024-01-29T04:55:39.513Z,21.13
2024-01-29T04:56:39.518Z,21.18
2024-01-29T04:57:39.588Z,21.19
2024-01-29T04:58:39.492Z,21.21
2024-01-29T04:59:39.505Z,21.16
2024-01-29T05:00:39.646Z,21.22
2024-01-29T05:01:39.664Z,21.16
2024-01-29T05:02:39.534Z,21.16
2024-01-29T05:03:39.587Z,21.15
2024-01-29T05:04:39.618Z,21.21
2024-01-29T05:05:39.571Z,21.20
2024-01-29T05:06:39.623Z,21.15
2024-01-29T05:07:39.567Z,21.31
2024-01-29T05:08:39.512Z,21.16
2024-01-29T05:09:39.530Z,21.15
2024-01-29T05:10:40.193Z,21.16
2024-01-29T05:11:39.519Z,21.19
2024-01-29T05:12:39.555Z,21.09
2024-01-29T05:13:39.556Z,21.13
2024-01-29T05:14:39.916Z,21.19
2024-01-29T05:15:39.622Z,21.13
2024-01-29T05:16:39.547Z,21.18
2024-01-29T05:17:39.642Z,21.12
2024-01-29T05:18:39.588Z,21.15
2024-01-29T05:19:39.603Z,21.20
2024-01-29T05:20:39.539Z,21.10
2024-01-29T05:21:39.562Z,21.18
2024-01-29T05:22:39.558Z,21.12
2024-01-29T05:23:39.530Z,21.13
2024-01-29T05:24:39.660Z,21.16
2024-01-29T05:25:39.552Z,21.13
2024-01-29T05:26:39.568Z,21.16
2024-01-29T05:27:39.578Z,21.04
2024-01-29T05:28:39.552Z,21.15
2024-01-29T05:29:39.558Z,21.07
2024-01-29T05:30:39.962Z,21.07
2024-01-29T05:31:39.555Z,21.12
2024-01-29T05:32:39.638Z,21.07
2024-01-29T05:33:39.615Z,21.13
2024-01-29T05:34:39.658Z,21.12
2024-01-29T05:35:39.579Z,21.23
2024-01-29T05:36:39.574Z,21.08
2024-01-29T05:37:39.563Z,21.13
2024-01-29T05:38:39.567Z,21.03
2024-01-29T05:39:39.718Z,21.03
2024-01-29T05:40:39.595Z,21.04
2024-01-29T05:41:39.581Z,21.07
2024-01-29T05:42:39.670Z,21.07
2024-01-29T05:43:39.598Z,21.04
2024-01-29T05:44:39.656Z,21.13
2024-01-29T05:45:39.952Z,21.09
2024-01-29T05:46:39.664Z,21.06
2024-01-29T05:47:39.773Z,21.03
2024-01-29T05:48:39.846Z,21.10
2024-01-29T05:49:39.772Z,21.09
2024-01-29T05:50:39.754Z,21.04
2024-01-29T05:51:39.863Z,21.06
2024-01-29T05:52:39.811Z,21.03
2024-01-29T05:53:39.833Z,21.04
2024-01-29T05:54:39.870Z,21.04
2024-01-29T05:55:39.865Z,21.01
2024-01-29T05:56:39.903Z,21.04
2024-01-29T05:57:40.019Z,21.06
2024-01-29T05:58:39.961Z,21.03
2024-01-29T05:59:40.007Z,21.09
2024-01-29T06:00:40.112Z,20.98
2024-01-29T06:01:40.201Z,20.97
2024-01-29T06:02:40.160Z,21.01
2024-01-29T06:03:40.137Z,21.04
2024-01-29T06:04:40.121Z,21.10
2024-01-29T06:05:40.261Z,21.13
2024-01-29T06:06:40.383Z,20.98
2024-01-29T06:07:40.341Z,21.03
2024-01-29T06:08:40.295Z,21.04
2024-01-29T06:09:40.369Z,21.01
2024-01-29T06:10:40.355Z,21.00
2024-01-29T06:11:40.354Z,20.94
2024-01-29T06:12:40.486Z,20.91
2024-01-29T06:13:40.436Z,21.01
2024-01-29T06:14:40.435Z,20.95
2024-01-29T06:15:41.003Z,21.16
2024-01-29T06:16:40.507Z,22.11
2024-01-29T06:17:40.630Z,21.73
2024-01-29T06:18:40.675Z,22.13
2024-01-29T06:19:53.800Z,22.38
2024-01-29T06:20:41.715Z,22.62
2024-01-29T06:21:40.597Z,22.50
2024-01-29T06:22:40.585Z,22.73
2024-01-29T06:23:40.727Z,22.70
2024-01-29T06:24:40.675Z,22.66
2024-01-29T06:25:40.615Z,22.70
2024-01-29T06:26:40.624Z,22.64
2024-01-29T06:27:40.660Z,22.62
2024-01-29T06:28:40.620Z,22.63
2024-01-29T06:29:40.613Z,22.64
2024-01-29T06:30:40.717Z,22.62
2024-01-29T06:31:40.642Z,22.50
2024-01-29T06:32:40.665Z,22.48
2024-01-29T06:33:40.668Z,22.48
2024-01-29T06:34:40.768Z,22.39
2024-01-29T06:35:40.989Z,22.48
2024-01-29T06:36:40.819Z,22.45
2024-01-29T06:37:40.793Z,22.38
2024-01-29T06:38:40.894Z,22.44
2024-01-29T06:39:40.860Z,22.34
2024-01-29T06:40:40.859Z,22.38
2024-01-29T06:41:40.928Z,22.31
2024-01-29T06:42:40.949Z,22.29
2024-01-29T06:43:40.952Z,22.32
2024-01-29T06:44:40.989Z,22.45
2024-01-29T06:45:41.508Z,22.49
2024-01-29T06:46:41.049Z,22.48
2024-01-29T06:47:41.065Z,22.63
2024-01-29T06:48:41.967Z,22.89
2024-01-29T06:49:41.219Z,23.19
2024-01-29T06:50:41.134Z,23.23
2024-01-29T06:51:41.244Z,23.23
2024-01-29T06:52:41.216Z,23.47
2024-01-29T06:53:41.236Z,23.85
2024-01-29T06:54:41.243Z,23.80
2024-01-29T06:55:41.449Z,23.87
2024-01-29T06:56:41.388Z,24.42
2024-01-29T06:57:41.419Z,24.20
2024-01-29T06:58:41.463Z,24.07
2024-01-29T06:59:41.546Z,24.04
2024-01-29T07:00:41.717Z,23.96
2024-01-29T07:01:41.802Z,23.86
2024-01-29T07:02:41.723Z,23.77
2024-01-29T07:03:41.812Z,23.73
2024-01-29T07:04:41.859Z,23.66
2024-01-29T07:05:42.102Z,23.60
2024-01-29T07:06:41.935Z,23.55
2024-01-29T07:07:41.963Z,23.52
2024-01-29T07:08:42.055Z,23.47
2024-01-29T07:09:42.116Z,23.44
2024-01-29T07:10:42.441Z,23.42
2024-01-29T07:11:42.181Z,23.32
2024-01-29T07:12:42.268Z,23.32
2024-01-29T07:13:42.292Z,23.27
2024-01-29T07:14:42.421Z,23.24
2024-01-29T07:15:42.421Z,23.22
2024-01-29T07:16:42.404Z,23.18
2024-01-29T07:17:42.563Z,23.15
2024-01-29T07:18:42.668Z,23.15
2024-01-29T07:19:42.771Z,23.12
2024-01-29T07:20:42.656Z,23.31
2024-01-29T07:21:42.742Z,23.31
2024-01-29T07:22:42.758Z,23.21
2024-01-29T07:23:42.807Z,23.12
2024-01-29T07:24:42.917Z,23.09
2024-01-29T07:25:42.921Z,23.09
2024-01-29T07:26:42.995Z,23.05
2024-01-29T07:27:43.088Z,23.00
2024-01-29T07:28:43.074Z,22.92
2024-01-29T07:29:43.117Z,22.93
2024-01-29T07:30:43.497Z,22.87
2024-01-29T07:31:43.231Z,22.87
2024-01-29T07:32:43.361Z,22.86
2024-01-29T07:33:43.353Z,22.77
2024-01-29T07:34:43.436Z,22.72
2024-01-29T07:35:43.515Z,22.77
2024-01-29T07:36:43.497Z,22.71
2024-01-29T07:37:43.524Z,22.66
2024-01-29T07:38:43.530Z,22.65
2024-01-29T07:39:43.648Z,22.65
2024-01-29T07:40:43.648Z,22.68
2024-01-29T07:41:43.716Z,22.56
2024-01-29T07:42:43.772Z,22.55
2024-01-29T07:43:43.894Z,22.52
2024-01-29T07:44:43.881Z,22.53
2024-01-29T07:45:44.013Z,22.54
2024-01-29T07:46:44.001Z,22.50
2024-01-29T07:47:44.137Z,22.47
2024-01-29T07:48:44.145Z,22.48
2024-01-29T07:49:44.291Z,22.46
2024-01-29T07:50:44.225Z,22.40
2024-01-29T07:51:44.281Z,22.39
2024-01-29T07:52:44.317Z,23.10
2024-01-29T07:53:44.354Z,23.00
2024-01-29T07:54:44.560Z,23.28
2024-01-29T07:55:44.418Z,23.38
2024-01-29T07:56:44.451Z,23.34
2024-01-29T07:57:44.492Z,23.36
2024-01-29T07:58:44.566Z,23.94
2024-01-29T07:59:44.605Z,24.03
2024-01-29T08:00:44.864Z,24.65
2024-01-29T08:01:44.738Z,24.87
2024-01-29T08:02:44.788Z,24.85
2024-01-29T08:03:46.161Z,25.19
2024-01-29T08:04:44.825Z,25.53
2024-01-29T08:05:44.842Z,26.00
2024-01-29T08:06:44.843Z,26.20
2024-01-29T08:07:44.850Z,26.44
2024-01-29T08:08:44.867Z,26.60
2024-01-29T08:09:44.902Z,26.56
2024-01-29T08:10:44.940Z,26.81
2024-01-29T08:11:44.976Z,26.91
2024-01-29T08:12:45.103Z,27.09
2024-01-29T08:13:45.111Z,27.11
2024-01-29T08:14:45.173Z,27.55
2024-01-29T08:15:45.236Z,27.74
2024-01-29T08:16:45.243Z,27.64
2024-01-29T08:17:45.370Z,28.14
2024-01-29T08:18:45.490Z,28.70
2024-01-29T08:19:45.528Z,29.52
2024-01-29T08:20:45.570Z,29.16
2024-01-29T08:21:45.436Z,29.19
2024-01-29T08:22:45.454Z,28.90
2024-01-29T08:23:45.485Z,29.60
2024-01-29T08:24:46.097Z,29.42
2024-01-29T08:25:45.550Z,29.01
2024-01-29T08:26:45.596Z,28.94
2024-01-29T08:27:45.635Z,29.13
2024-01-29T08:28:45.626Z,29.16
2024-01-29T08:29:45.674Z,29.21
2024-01-29T08:30:45.691Z,29.28
2024-01-29T08:31:46.197Z,29.35
2024-01-29T08:32:45.791Z,29.39
2024-01-29T08:33:45.885Z,29.25
2024-01-29T08:34:45.888Z,29.25
2024-01-29T08:35:45.838Z,29.81
2024-01-29T08:36:45.880Z,30.39
2024-01-29T08:37:45.845Z,30.29
2024-01-29T08:38:45.879Z,30.02
2024-01-29T08:39:45.956Z,30.28
2024-01-29T08:40:45.976Z,30.14
2024-01-29T08:41:46.032Z,30.33
2024-01-29T08:42:46.099Z,30.40
2024-01-29T08:43:46.091Z,30.36
2024-01-29T08:44:46.136Z,30.58
2024-01-29T08:45:46.525Z,30.57
2024-01-29T08:46:46.245Z,31.32
2024-01-29T08:47:46.309Z,31.36
2024-01-29T08:48:46.376Z,31.21
2024-01-29T08:49:46.367Z,31.05
2024-01-29T08:50:46.301Z,30.67
2024-01-29T08:51:46.541Z,30.37
2024-01-29T08:52:46.349Z,30.12
2024-01-29T08:53:46.430Z,29.73
2024-01-29T08:54:46.536Z,29.55
2024-01-29T08:55:47.216Z,29.47
2024-01-29T08:56:46.488Z,29.35
2024-01-29T08:57:46.568Z,29.17
2024-01-29T08:58:46.564Z,29.01
2024-01-29T08:59:46.610Z,28.88
2024-01-29T09:00:47.049Z,28.72
2024-01-29T09:01:46.750Z,28.62
2024-01-29T09:02:46.688Z,28.47
2024-01-29T09:03:46.867Z,28.39
2024-01-29T09:04:46.899Z,28.27
2024-01-29T09:05:46.910Z,28.16
2024-01-29T09:06:46.937Z,28.09
2024-01-29T09:07:46.978Z,27.98
2024-01-29T09:08:47.037Z,27.90
2024-01-29T09:09:47.103Z,27.77
2024-01-29T09:10:48.457Z,27.70
2024-01-29T09:11:47.520Z,27.63
2024-01-29T09:12:47.275Z,27.55
2024-01-29T09:13:47.279Z,27.44
2024-01-29T09:14:47.382Z,27.36
2024-01-29T09:15:47.531Z,27.31
2024-01-29T09:16:47.498Z,27.26
2024-01-29T09:17:47.588Z,27.19
2024-01-29T09:18:47.649Z,27.15
2024-01-29T09:19:47.664Z,27.08
2024-01-29T09:20:47.670Z,26.95
2024-01-29T09:21:47.713Z,26.92
2024-01-29T09:22:47.745Z,26.94
2024-01-29T09:23:47.738Z,26.87
2024-01-29T09:24:47.776Z,26.74
2024-01-29T09:25:47.815Z,26.69
2024-01-29T09:26:47.803Z,26.67
2024-01-29T09:27:47.838Z,26.59
2024-01-29T09:28:47.831Z,26.59
2024-01-29T09:29:47.839Z,26.57
2024-01-29T09:30:49.188Z,26.46
2024-01-29T09:31:47.945Z,26.42
2024-01-29T09:32:47.989Z,26.39
2024-01-29T09:33:48.084Z,26.30
2024-01-29T09:34:48.058Z,26.26
2024-01-29T09:35:47.993Z,26.20
2024-01-29T09:36:48.014Z,26.16
2024-01-29T09:37:48.055Z,26.17
2024-01-29T09:38:48.069Z,26.06
2024-01-29T09:39:48.174Z,26.03
2024-01-29T09:40:48.538Z,26.01
2024-01-29T09:41:48.156Z,26.03
2024-01-29T09:42:48.205Z,25.98
2024-01-29T09:43:48.275Z,25.95
2024-01-29T09:44:48.298Z,25.87
2024-01-29T09:45:48.384Z,25.85
2024-01-29T09:46:48.304Z,25.81
2024-01-29T09:47:48.363Z,25.77
2024-01-29T09:48:48.505Z,25.74
2024-01-29T09:49:48.449Z,25.70
2024-01-29T09:50:48.452Z,25.71
2024-01-29T09:51:48.554Z,25.63
2024-01-29T09:52:48.511Z,25.59
2024-01-29T09:53:48.560Z,25.58
2024-01-29T09:54:48.688Z,25.59
2024-01-29T09:55:48.659Z,25.49
2024-01-29T09:56:48.635Z,25.49
2024-01-29T09:57:48.767Z,25.48
2024-01-29T09:58:48.768Z,25.42
2024-01-29T09:59:48.767Z,25.47
2024-01-29T10:00:49.197Z,25.42
2024-01-29T10:01:49.066Z,25.39
2024-01-29T10:02:48.989Z,25.31
2024-01-29T10:03:49.046Z,25.27
2024-01-29T10:04:49.046Z,25.26
2024-01-29T10:05:49.054Z,25.21
2024-01-29T10:06:49.208Z,25.26
2024-01-29T10:07:49.200Z,25.22
2024-01-29T10:08:49.203Z,25.15
2024-01-29T10:09:49.204Z,25.14
2024-01-29T10:10:49.612Z,25.13
2024-01-29T10:11:49.313Z,25.13
2024-01-29T10:12:49.356Z,25.08
2024-01-29T10:13:49.383Z,25.09
2024-01-29T10:14:49.418Z,25.06
2024-01-29T10:15:49.503Z,25.05
2024-01-29T10:16:49.499Z,25.01
2024-01-29T10:17:49.526Z,24.97
2024-01-29T10:18:49.651Z,24.91
2024-01-29T10:19:49.763Z,24.98
2024-01-29T10:20:49.629Z,24.98
2024-01-29T10:21:49.801Z,24.91
2024-01-29T10:22:49.732Z,24.94
2024-01-29T10:23:50.519Z,24.98
2024-01-29T10:24:49.764Z,24.93
2024-01-29T10:25:49.805Z,24.92
2024-01-29T10:26:49.884Z,24.97
2024-01-29T10:27:49.941Z,24.99
2024-01-29T10:28:49.945Z,25.05
2024-01-29T10:29:49.986Z,25.17
2024-01-29T10:30:50.057Z,25.21
2024-01-29T10:31:50.063Z,25.39
2024-01-29T10:32:50.328Z,25.50
2024-01-29T10:33:50.237Z,25.36
2024-01-29T10:34:50.351Z,25.35
2024-01-29T10:35:50.377Z,25.27
2024-01-29T10:36:50.298Z,25.32
2024-01-29T10:37:50.298Z,25.39
2024-01-29T10:38:50.331Z,25.33
2024-01-29T10:39:58.910Z,25.35
2024-01-29T10:40:51.437Z,25.36
2024-01-29T10:41:50.388Z,25.95
2024-01-29T10:42:50.385Z,25.95
2024-01-29T10:43:50.395Z,26.48
2024-01-29T10:44:50.367Z,26.38
2024-01-29T10:45:50.399Z,26.41
2024-01-29T10:46:50.387Z,26.66
2024-01-29T10:47:50.646Z,27.20
2024-01-29T10:48:50.537Z,27.05
2024-01-29T10:49:50.482Z,27.38
2024-01-29T10:50:50.508Z,27.54
2024-01-29T10:51:50.436Z,27.62
2024-01-29T10:52:50.379Z,28.06
2024-01-29T10:53:50.430Z,27.76
2024-01-29T10:54:50.400Z,28.85
2024-01-29T10:55:50.556Z,28.67
2024-01-29T10:56:50.435Z,28.45
2024-01-29T10:57:50.481Z,28.42
2024-01-29T10:58:50.544Z,28.37
2024-01-29T10:59:50.575Z,28.47
2024-01-29T11:00:50.715Z,28.65
2024-01-29T11:02:34.049Z,28.66
2024-01-29T11:03:33.489Z,28.73
2024-01-29T11:04:36.159Z,28.92
2024-01-29T11:05:33.975Z,28.96
2024-01-29T11:06:33.488Z,28.98
2024-01-29T11:07:33.483Z,29.12
2024-01-29T11:08:33.499Z,29.29
2024-01-29T11:09:33.453Z,29.32
2024-01-29T11:10:33.476Z,29.38
2024-01-29T11:11:33.512Z,29.42
2024-01-29T11:12:33.482Z,29.53
2024-01-29T11:13:33.463Z,29.70
2024-01-29T11:14:33.451Z,29.86
2024-01-29T11:15:33.510Z,29.87
2024-01-29T11:16:34.274Z,30.04
2024-01-29T11:17:33.504Z,30.13
2024-01-29T11:18:33.558Z,30.18
2024-01-29T11:19:33.495Z,30.20
2024-01-29T11:20:34.433Z,30.42
2024-01-29T11:21:33.507Z,30.38
2024-01-29T11:22:33.474Z,30.37
2024-01-29T11:23:33.483Z,30.30
2024-01-29T11:24:33.475Z,30.56
2024-01-29T11:25:33.474Z,30.67
2024-01-29T11:26:33.448Z,30.70
2024-01-29T11:27:33.557Z,30.69
2024-01-29T11:28:33.559Z,30.58
2024-01-29T11:29:33.492Z,30.75
2024-01-29T11:30:33.534Z,30.74
2024-01-29T11:31:33.509Z,30.89
2024-01-29T11:32:33.527Z,31.12
2024-01-29T11:33:33.691Z,31.06
2024-01-29T11:34:33.566Z,31.43
2024-01-29T11:35:39.616Z,31.33
2024-01-29T11:36:34.505Z,31.38
2024-01-29T11:37:33.491Z,31.61
2024-01-29T11:38:33.504Z,32.07
2024-01-29T11:39:33.535Z,32.15
2024-01-29T11:40:33.959Z,31.89
2024-01-29T11:41:33.510Z,32.08
2024-01-29T11:42:33.480Z,32.21
2024-01-29T11:43:34.461Z,32.78
2024-01-29T11:44:33.457Z,33.04
2024-01-29T11:45:33.549Z,32.92
2024-01-29T11:46:33.513Z,32.71
2024-01-29T11:47:33.567Z,32.58
2024-01-29T11:48:33.696Z,32.38
2024-01-29T11:49:33.680Z,33.11
2024-01-29T11:50:33.674Z,33.36
2024-01-29T11:51:33.833Z,33.15
2024-01-29T11:52:33.794Z,33.18
2024-01-29T11:53:33.886Z,32.94
2024-01-29T11:54:34.005Z,33.00
2024-01-29T11:55:33.931Z,32.84
2024-01-29T11:56:33.975Z,32.83
2024-01-29T11:57:33.998Z,32.92
2024-01-29T11:58:34.075Z,33.05
2024-01-29T11:59:34.086Z,33.20
2024-01-29T12:00:34.090Z,33.19
2024-01-29T12:01:34.425Z,33.29
2024-01-29T12:02:34.128Z,33.40
2024-01-29T12:03:34.214Z,33.48
2024-01-29T12:04:34.315Z,33.55
2024-01-29T12:05:34.226Z,33.51
2024-01-29T12:06:34.367Z,33.59
2024-01-29T12:07:34.340Z,33.65
2024-01-29T12:08:34.354Z,33.88
2024-01-29T12:09:34.350Z,34.00
2024-01-29T12:10:34.461Z,34.00
2024-01-29T12:11:34.365Z,34.25
2024-01-29T12:12:34.451Z,34.12
2024-01-29T12:13:34.431Z,34.20
2024-01-29T12:14:34.451Z,34.20
2024-01-29T12:15:34.526Z,34.47
2024-01-29T12:16:34.523Z,34.44
2024-01-29T12:17:34.565Z,34.52
2024-01-29T12:18:34.692Z,34.71
2024-01-29T12:19:34.566Z,34.64
2024-01-29T12:20:34.598Z,34.64
2024-01-29T12:21:34.668Z,34.70
2024-01-29T12:22:34.652Z,34.66
2024-01-29T12:23:34.699Z,34.52
2024-01-29T12:24:34.744Z,34.41
2024-01-29T12:25:34.770Z,34.64
2024-01-29T12:26:34.780Z,34.71
2024-01-29T12:27:34.823Z,34.64
2024-01-29T12:28:34.800Z,34.71
2024-01-29T12:29:34.837Z,34.86
2024-01-29T12:30:34.903Z,34.64
2024-01-29T12:31:34.893Z,34.71
2024-01-29T12:32:34.885Z,34.89
2024-01-29T12:33:35.316Z,35.35
2024-01-29T12:34:35.001Z,35.41
2024-01-29T12:35:34.946Z,35.28
2024-01-29T12:36:35.022Z,35.04
2024-01-29T12:37:34.988Z,34.84
2024-01-29T12:38:35.057Z,34.63
2024-01-29T12:39:35.091Z,34.37
2024-01-29T12:40:35.075Z,34.11
2024-01-29T12:41:35.128Z,33.89
2024-01-29T12:42:35.180Z,33.85
2024-01-29T12:43:35.172Z,33.61
2024-01-29T12:44:35.217Z,33.41
2024-01-29T12:45:35.378Z,33.32
2024-01-29T12:46:35.411Z,33.06
2024-01-29T12:47:35.423Z,32.76
2024-01-29T12:48:35.618Z,32.56
2024-01-29T12:49:35.695Z,32.33
2024-01-29T12:50:35.731Z,32.22
2024-01-29T12:51:35.709Z,32.13
2024-01-29T12:52:35.709Z,32.06
2024-01-29T12:53:35.745Z,32.03